Time;durP1;ratioP1;P1;durP2;ratioP2;P2;SDS_P1;SDS_P2;PMS_P1;PMS_P2;Temp;Humidity;BMP_temperature;BMP_pressure;BME280_temperature;BME280_humidity;BME280_pressure;Samples;Min_cycle;Max_cycle;Signal;HPM_P1;HPM_P2
2022/05/06 00:01:27;;;;;;;16.67;15.07;;;;;;;15.35;78.12;99191.53;5026563;27;104579;-67
2022/05/06 00:03:55;;;;;;;23.03;20.83;;;;;;;14.73;80.69;99194.91;5030467;27;103257;-67
2022/05/06 00:06:24;;;;;;;18.90;17.15;;;;;;;14.90;81.13;99196.19;5032592;27;102740;-68
2022/05/06 00:08:52;;;;;;;16.00;14.60;;;;;;;15.18;79.50;99194.75;5028829;27;102569;-67
2022/05/06 00:11:20;;;;;;;18.90;17.10;;;;;;;15.11;80.45;99199.72;5033467;27;103435;-67
2022/05/06 00:13:52;;;;;;;22.73;20.35;;;;;;;14.87;80.92;99199.09;5030766;27;103258;-67
2022/05/06 00:16:20;;;;;;;17.38;15.77;;;;;;;15.09;79.48;99196.34;5033317;27;102776;-68
2022/05/06 00:18:49;;;;;;;23.70;21.40;;;;;;;15.04;80.07;99193.25;5034123;27;102699;-67
2022/05/06 00:21:17;;;;;;;24.35;21.95;;;;;;;14.85;80.37;99193.06;5030978;27;104388;-67
2022/05/06 00:23:45;;;;;;;16.40;14.95;;;;;;;15.10;79.26;99188.22;5033071;27;103212;-67
2022/05/06 00:26:15;;;;;;;19.85;18.00;;;;;;;15.12;79.11;99196.09;5031314;27;102521;-67
2022/05/06 00:28:43;;;;;;;19.65;17.85;;;;;;;15.03;79.64;99191.53;5034826;27;103616;-69
2022/05/06 00:31:15;;;;;;;21.33;19.25;;;;;;;15.09;79.71;99197.22;5031985;27;104522;-68
2022/05/06 00:33:43;;;;;;;18.17;16.58;;;;;;;15.01;80.10;99188.16;5035570;27;104223;-68
2022/05/06 00:36:12;;;;;;;18.08;16.48;;;;;;;15.19;78.96;99191.94;5033748;27;102531;-68
2022/05/06 00:38:40;;;;;;;16.75;15.25;;;;;;;15.20;79.15;99198.97;5026213;27;103627;-69
2022/05/06 00:41:09;;;;;;;18.15;16.38;;;;;;;15.18;79.19;99189.44;5030162;27;103252;-68
2022/05/06 00:43:39;;;;;;;16.38;15.00;;;;;;;15.17;79.91;99193.91;5031779;27;103190;-68
2022/05/06 00:46:11;;;;;;;22.60;20.57;;;;;;;14.81;81.54;99195.13;5033644;27;102712;-68
2022/05/06 00:48:42;;;;;;;20.33;18.33;;;;;;;15.04;80.09;99190.56;5031370;27;102977;-68
2022/05/06 00:51:10;;;;;;;25.63;22.83;;;;;;;14.75;80.76;99192.13;5030907;27;103016;-68
2022/05/06 00:53:38;;;;;;;19.40;17.70;;;;;;;14.89;81.26;99194.50;5022119;27;105275;-68
2022/05/06 00:56:08;;;;;;;21.05;19.00;;;;;;;14.94;80.76;99189.63;5024645;27;102739;-68
2022/05/06 00:58:36;;;;;;;25.35;22.95;;;;;;;14.49;82.23;99188.91;5026619;27;103133;-67
2022/05/06 01:01:06;;;;;;;19.52;17.63;;;;;;;14.81;80.05;99187.16;5024651;27;104278;-68
2022/05/06 01:03:35;;;;;;;22.17;20.08;;;;;;;15.03;79.81;99188.88;5021927;27;103207;-68
2022/05/06 01:06:10;;;;;;;17.98;16.38;;;;;;;15.01;79.85;99185.50;5027330;27;102693;-68
2022/05/06 01:08:39;;;;;;;23.52;21.08;;;;;;;14.89;79.67;99186.50;5021994;27;104183;-68
2022/05/06 01:11:07;;;;;;;20.07;18.27;;;;;;;14.87;81.03;99183.13;5022558;27;104456;-68
2022/05/06 01:13:43;;;;;;;24.58;22.15;;;;;;;14.59;81.95;99187.22;5026574;27;105999;-68
2022/05/06 01:16:14;;;;;;;22.90;20.70;;;;;;;14.95;80.13;99183.34;5024923;27;102619;-68
2022/05/06 01:18:48;;;;;;;21.10;19.20;;;;;;;14.95;80.56;99183.34;5033843;27;102691;-68
2022/05/06 01:21:24;;;;;;;24.35;22.10;;;;;;;14.39;81.67;99190.63;5034921;27;104160;-68
2022/05/06 01:23:53;;;;;;;28.15;25.15;;;;;;;13.96;83.96;99193.13;5028372;27;104171;-68
2022/05/06 01:26:21;;;;;;;23.52;21.25;;;;;;;14.43;83.47;99192.91;5028238;27;102995;-68
2022/05/06 01:28:54;;;;;;;18.30;16.70;;;;;;;14.72;82.06;99192.38;5045329;27;103579;-68
2022/05/06 01:31:23;;;;;;;20.67;18.83;;;;;;;14.71;82.29;99193.34;5041643;27;106221;-68
2022/05/06 01:33:55;;;;;;;22.77;20.60;;;;;;;14.55;83.16;99200.84;5030162;27;103472;-68
2022/05/06 01:36:25;;;;;;;20.50;18.60;;;;;;;14.68;81.79;99196.25;5022095;27;102646;-67
2022/05/06 01:38:59;;;;;;;18.63;16.93;;;;;;;14.86;80.72;99200.06;5028674;27;104315;-68
2022/05/06 01:41:35;;;;;;;19.92;18.05;;;;;;;14.81;80.35;99200.44;5031051;27;103315;-68
2022/05/06 01:44:10;;;;;;;21.73;19.73;;;;;;;14.58;81.67;99190.81;5030448;27;103240;-69
2022/05/06 01:46:39;;;;;;;22.80;20.60;;;;;;;14.67;82.42;99194.56;5046263;27;102696;-68
2022/05/06 01:49:13;;;;;;;20.00;18.20;;;;;;;14.57;83.15;99202.41;5020031;27;102795;-67
2022/05/06 01:51:44;;;;;;;15.83;14.43;;;;;;;14.84;81.53;99200.19;5025114;27;103325;-67
2022/05/06 01:54:18;;;;;;;19.25;17.55;;;;;;;14.86;81.27;99198.25;5031715;27;106992;-68
2022/05/06 01:56:49;;;;;;;18.05;16.35;;;;;;;14.95;80.81;99199.31;5027215;27;102828;-68
2022/05/06 01:59:19;;;;;;;19.95;18.05;;;;;;;14.92;80.37;99196.91;5026390;27;103994;-68
2022/05/06 02:01:51;;;;;;;14.48;13.27;;;;;;;15.00;80.39;99202.44;5022715;27;105122;-68
2022/05/06 02:07:12;;;;;;;19.00;17.37;;;;;;;14.93;80.55;99199.41;5037447;27;103010;-68
2022/05/06 02:09:44;;;;;;;15.70;14.30;;;;;;;15.02;80.15;99205.81;5033515;27;102957;-68
2022/05/06 02:12:15;;;;;;;15.80;14.40;;;;;;;15.03;79.89;99192.38;5031081;27;105206;-68
2022/05/06 02:14:59;;;;;;;20.20;18.33;;;;;;;15.05;79.63;99200.22;5026100;27;103828;-68
2022/05/06 02:17:42;;;;;;;23.70;21.17;;;;;;;14.70;80.94;99194.31;5028118;27;102949;-68
2022/05/06 02:20:24;;;;;;;23.47;21.27;;;;;;;14.55;82.60;99198.19;5025767;27;102722;-68
2022/05/06 02:23:10;;;;;;;20.42;18.55;;;;;;;14.75;81.33;99195.63;5027816;27;104058;-68
2022/05/06 02:26:06;;;;;;;16.83;15.30;;;;;;;14.90;80.80;99198.84;5023522;27;103192;-68
2022/05/06 02:28:43;;;;;;;21.40;19.42;;;;;;;14.81;80.56;99197.78;5017127;27;102680;-68
2022/05/06 02:33:57;;;;;;;19.35;17.50;;;;;;;14.93;79.83;99198.59;5024659;27;104556;-69
2022/05/06 02:36:29;;;;;;;17.05;15.57;;;;;;;14.94;79.72;99193.13;5029469;27;106365;-68
2022/05/06 02:38:57;;;;;;;15.67;14.37;;;;;;;14.98;79.68;99199.91;5045141;27;102864;-68
2022/05/06 02:41:27;;;;;;;18.58;16.83;;;;;;;14.93;79.65;99195.94;5028228;27;104028;-68
2022/05/06 02:43:57;;;;;;;18.33;16.70;;;;;;;14.67;81.02;99199.88;5027232;27;105064;-68
2022/05/06 02:46:30;;;;;;;18.57;17.03;;;;;;;14.60;81.53;99203.97;5027629;27;104361;-67
2022/05/06 02:48:58;;;;;;;19.83;17.83;;;;;;;14.69;80.69;99203.25;5031593;27;102926;-68
2022/05/06 02:51:28;;;;;;;18.63;16.93;;;;;;;14.38;82.92;99205.72;5034602;27;104021;-67
2022/05/06 02:53:56;;;;;;;16.40;15.00;;;;;;;14.65;81.74;99201.81;5027690;27;104018;-68
2022/05/06 02:56:32;;;;;;;19.27;17.53;;;;;;;14.65;81.02;99196.50;5024556;27;103299;-68
2022/05/06 02:59:04;;;;;;;20.53;17.97;;;;;;;14.48;80.56;99200.53;5034999;27;102772;-68
2022/05/06 03:01:35;;;;;;;18.20;16.48;;;;;;;14.62;80.41;99200.25;5038001;27;104305;-68
2022/05/06 03:04:08;;;;;;;20.35;18.40;;;;;;;14.55;80.52;99203.50;5024673;27;103274;-68
2022/05/06 03:06:36;;;;;;;18.77;16.80;;;;;;;14.74;79.96;99195.72;5031343;27;105363;-68
2022/05/06 03:09:04;;;;;;;18.23;16.40;;;;;;;14.83;79.06;99200.31;5021917;27;102731;-68
2022/05/06 03:11:36;;;;;;;17.25;15.63;;;;;;;14.85;79.28;99201.06;5021886;27;104271;-68
2022/05/06 03:14:15;;;;;;;18.17;16.37;;;;;;;14.72;79.24;99189.69;5021533;27;104689;-68
2022/05/06 03:17:04;;;;;;;16.57;15.00;;;;;;;14.82;79.42;99202.13;5022006;27;105409;-68
2022/05/06 03:19:32;;;;;;;17.10;15.60;;;;;;;14.79;79.09;99188.25;5010577;27;102662;-68
2022/05/06 03:22:01;;;;;;;18.40;16.60;;;;;;;14.60;80.22;99193.34;4991873;28;102654;-68
2022/05/06 03:24:31;;;;;;;18.42;16.63;;;;;;;14.41;81.29;99200.16;4992492;28;104617;-68
2022/05/06 03:27:01;;;;;;;16.80;15.30;;;;;;;14.62;80.56;99196.75;4993351;28;103247;-68
2022/05/06 03:29:29;;;;;;;19.55;17.65;;;;;;;14.27;81.44;99197.72;5011695;28;102954;-68
2022/05/06 03:31:59;;;;;;;18.60;16.70;;;;;;;14.51;80.55;99200.28;4994981;28;104288;-69
2022/05/06 03:34:30;;;;;;;13.57;12.38;;;;;;;14.74;79.91;99195.72;4997998;28;104247;-69
2022/05/06 03:36:58;;;;;;;15.93;14.52;;;;;;;14.76;79.96;99193.81;4990551;28;106000;-70
2022/05/06 03:39:26;;;;;;;15.95;14.55;;;;;;;14.52;80.82;99194.81;5008434;28;102609;-68
2022/05/06 03:42:02;;;;;;;16.17;14.68;;;;;;;14.71;79.76;99196.00;4974512;28;103770;-68
2022/05/06 03:44:31;;;;;;;17.67;15.90;;;;;;;14.44;80.61;99199.06;4979873;27;106238;-68
2022/05/06 03:47:00;;;;;;;12.33;11.33;;;;;;;14.70;80.19;99199.63;5018464;27;105537;-68
2022/05/06 03:49:35;;;;;;;15.43;14.02;;;;;;;14.72;80.02;99198.53;5023354;27;103183;-68
2022/05/06 03:52:04;;;;;;;16.42;14.93;;;;;;;14.72;79.88;99197.69;5020242;27;102843;-68
2022/05/06 03:54:33;;;;;;;14.20;12.90;;;;;;;14.67;79.83;99199.88;5020138;27;104482;-68
2022/05/06 03:57:02;;;;;;;13.88;12.63;;;;;;;14.65;80.02;99204.47;5019414;27;105182;-68
2022/05/06 03:59:33;;;;;;;12.27;11.13;;;;;;;14.72;79.95;99203.00;5018091;27;102731;-68
2022/05/06 04:02:09;;;;;;;12.60;11.50;;;;;;;14.87;79.51;99207.94;5020739;27;103313;-67
2022/05/06 04:04:37;;;;;;;14.00;12.60;;;;;;;14.75;79.30;99205.41;5023549;27;103692;-68
2022/05/06 04:07:09;;;;;;;11.35;10.45;;;;;;;14.75;79.46;99208.91;5020780;27;104260;-68
2022/05/06 04:09:45;;;;;;;12.73;11.52;;;;;;;14.49;80.49;99211.03;5010912;27;104091;-68
2022/05/06 04:12:15;;;;;;;13.38;12.07;;;;;;;14.22;81.69;99225.63;5018694;27;103814;-68
2022/05/06 04:14:50;;;;;;;12.88;11.77;;;;;;;14.15;83.21;99217.28;5019381;27;103239;-68
2022/05/06 04:17:20;;;;;;;14.13;12.70;;;;;;;14.03;83.31;99215.63;5020243;27;105482;-68
2022/05/06 04:25:26;;;;;;;11.35;10.35;;;;;;;14.61;81.78;99224.28;5024732;27;103210;-69
2022/05/06 04:27:56;;;;;;;13.50;12.27;;;;;;;14.22;83.77;99229.13;5024163;27;105892;-69
2022/05/06 04:30:26;;;;;;;14.65;13.32;;;;;;;14.06;84.40;99231.31;5026364;27;102727;-69
2022/05/06 04:33:05;;;;;;;12.10;11.00;;;;;;;14.25;84.28;99228.91;5041803;27;103910;-69
2022/05/06 04:35:35;;;;;;;12.90;11.68;;;;;;;14.28;84.06;99231.31;5033914;27;105912;-68
2022/05/06 04:38:07;;;;;;;13.10;11.93;;;;;;;14.15;84.59;99233.22;5033183;27;103288;-68
2022/05/06 04:40:37;;;;;;;13.65;12.35;;;;;;;14.21;84.53;99235.41;5029339;27;102660;-69
2022/05/06 04:43:08;;;;;;;12.93;11.73;;;;;;;14.27;83.74;99239.41;5030375;27;102739;-69
2022/05/06 04:45:39;;;;;;;14.32;12.98;;;;;;;14.12;84.42;99243.28;5022622;27;105719;-69
2022/05/06 04:48:11;;;;;;;13.40;11.73;;;;;;;14.34;84.38;99241.47;5024261;27;106567;-68
2022/05/06 04:50:43;;;;;;;12.90;11.68;;;;;;;14.19;84.91;99244.47;5015432;27;103551;-69
2022/05/06 04:53:13;;;;;;;11.75;10.65;;;;;;;14.26;84.74;99243.84;5024365;27;103782;-69
2022/05/06 04:55:42;;;;;;;12.05;10.85;;;;;;;14.27;84.11;99248.22;5030270;27;104338;-69
2022/05/06 04:58:14;;;;;;;12.35;11.07;;;;;;;14.35;84.05;99243.19;5029065;27;103170;-69
2022/05/06 05:00:44;;;;;;;12.95;11.75;;;;;;;14.16;84.29;99245.56;5020223;27;103333;-69
2022/05/06 05:03:12;;;;;;;11.20;10.20;;;;;;;14.27;84.70;99250.88;5027045;27;102746;-69
2022/05/06 05:05:41;;;;;;;13.75;12.43;;;;;;;13.93;85.55;99257.97;5028274;27;105010;-69
2022/05/06 05:08:09;;;;;;;11.07;10.07;;;;;;;14.04;85.49;99254.47;5029147;27;104301;-69
2022/05/06 05:10:44;;;;;;;13.93;12.63;;;;;;;13.87;85.88;99254.94;5030011;27;102820;-68
2022/05/06 05:13:13;;;;;;;12.83;11.53;;;;;;;14.04;86.20;99256.28;5018335;27;104595;-72
2022/05/06 05:15:41;;;;;;;10.48;9.52;;;;;;;14.28;85.07;99265.88;5025646;27;104154;-69
2022/05/06 05:18:10;;;;;;;12.23;11.20;;;;;;;14.26;85.67;99265.13;5022489;27;104186;-69
2022/05/06 05:20:39;;;;;;;10.30;9.40;;;;;;;14.36;85.82;99270.59;5025993;27;103214;-69
2022/05/06 05:23:07;;;;;;;12.87;11.67;;;;;;;14.26;85.65;99266.97;5026345;27;104186;-69
2022/05/06 05:25:38;;;;;;;10.60;9.70;;;;;;;14.41;84.30;99269.28;5027490;27;105956;-69
2022/05/06 05:28:07;;;;;;;14.80;13.43;;;;;;;14.02;86.50;99272.34;5028013;27;103179;-69
2022/05/06 05:30:40;;;;;;;11.77;10.67;;;;;;;14.36;85.47;99266.13;5020056;27;102791;-69
2022/05/06 05:33:10;;;;;;;13.48;12.25;;;;;;;14.28;85.33;99267.69;5026969;27;103130;-70
2022/05/06 05:35:45;;;;;;;14.97;13.53;;;;;;;14.03;87.13;99271.41;5026533;27;104464;-69
2022/05/06 05:38:13;;;;;;;14.90;13.40;;;;;;;14.15;85.59;99277.56;5031750;27;103104;-69
2022/05/06 05:40:43;;;;;;;11.20;10.20;;;;;;;14.39;85.41;99279.19;5030789;27;102791;-69
2022/05/06 05:48:44;;;;;;;15.63;13.80;;;;;;;14.00;86.05;99279.59;5030194;27;106122;-72
2022/05/06 05:51:12;;;;;;;14.07;12.70;;;;;;;14.20;85.45;99270.09;5029444;27;102740;-72
2022/05/06 05:53:49;;;;;;;15.13;13.63;;;;;;;13.80;86.42;99277.63;5022713;27;103017;-73
2022/05/06 05:56:18;;;;;;;13.17;11.87;;;;;;;14.19;85.61;99279.88;5031047;27;105763;-73
2022/05/06 05:58:50;;;;;;;14.85;13.35;;;;;;;13.67;87.30;99271.56;5024881;27;104175;-72
2022/05/06 06:01:22;;;;;;;15.63;13.82;;;;;;;13.77;86.43;99273.41;5030031;27;103077;-73
2022/05/06 06:03:53;;;;;;;16.00;14.50;;;;;;;13.45;88.50;99276.78;5032722;27;102957;-73
2022/05/06 06:06:21;;;;;;;14.98;13.52;;;;;;;13.46;88.12;99278.47;5033699;27;103855;-73
2022/05/06 06:08:52;;;;;;;14.25;12.75;;;;;;;13.60;88.32;99286.25;5025718;27;103330;-73
2022/05/06 06:11:20;;;;;;;14.18;12.85;;;;;;;13.75;87.74;99271.81;5021845;27;103148;-73
2022/05/06 06:13:51;;;;;;;16.58;14.32;;;;;;;13.60;87.06;99287.09;5023100;27;104158;-73
2022/05/06 06:16:24;;;;;;;14.15;12.70;;;;;;;13.85;86.19;99280.78;5024545;27;104417;-73
2022/05/06 06:18:54;;;;;;;13.57;12.23;;;;;;;13.90;86.17;99283.91;5016243;27;104645;-72
2022/05/06 06:21:24;;;;;;;12.53;11.47;;;;;;;13.81;85.88;99279.34;4987838;28;102815;-73
2022/05/06 06:23:52;;;;;;;15.80;14.20;;;;;;;13.34;87.64;99288.19;4986470;28;103316;-72
2022/05/06 06:26:20;;;;;;;11.95;10.85;;;;;;;13.93;86.51;99284.53;4995278;28;105125;-73
2022/05/06 06:28:48;;;;;;;12.88;11.68;;;;;;;13.86;85.95;99283.31;4989754;28;105173;-72
2022/05/06 06:31:16;;;;;;;13.40;12.10;;;;;;;13.88;84.49;99291.16;5000145;28;102764;-73
2022/05/06 06:33:47;;;;;;;10.57;9.67;;;;;;;14.24;84.02;99283.00;4992481;28;104332;-72
2022/05/06 06:36:24;;;;;;;13.07;11.77;;;;;;;13.70;85.19;99284.59;5004344;28;104045;-73
2022/05/06 06:38:52;;;;;;;11.43;10.32;;;;;;;13.98;84.00;99292.13;4991776;28;105404;-73
2022/05/06 06:41:20;;;;;;;11.13;10.20;;;;;;;13.94;85.22;99285.38;4994655;28;103136;-72
2022/05/06 06:43:49;;;;;;;13.35;11.60;;;;;;;13.65;85.15;99297.38;4991421;28;103713;-73
2022/05/06 06:46:37;;;;;;;10.60;9.60;;;;;;;13.89;84.97;99292.88;5006642;28;104072;-72
2022/05/06 06:49:32;;;;;;;10.23;9.05;;;;;;;14.34;83.64;99297.28;4984095;28;103042;-72
2022/05/06 06:52:15;;;;;;;10.63;9.57;;;;;;;14.53;82.41;99310.00;4994369;28;102674;-73
2022/05/06 06:54:43;;;;;;;11.23;10.23;;;;;;;14.12;83.28;99304.38;4988062;28;102769;-73
2022/05/06 06:57:11;;;;;;;10.25;9.30;;;;;;;14.22;82.02;99306.22;5011026;28;103227;-68
2022/05/06 06:59:39;;;;;;;9.60;8.75;;;;;;;14.36;82.09;99300.69;5015579;28;103191;-68
2022/05/06 07:02:07;;;;;;;10.98;9.95;;;;;;;14.20;83.90;99297.50;4990179;28;102744;-69
2022/05/06 07:04:36;;;;;;;9.30;8.50;;;;;;;14.38;83.00;99304.06;5005874;28;102715;-68
2022/05/06 07:12:35;;;;;;;11.00;9.90;;;;;;;13.79;83.87;99307.78;5007657;28;102747;-68
2022/05/06 07:15:04;;;;;;;11.60;10.40;;;;;;;13.69;82.71;99310.31;5013058;28;103734;-68
2022/05/06 07:17:31;;;;;;;13.53;12.20;;;;;;;13.82;82.06;99312.88;5011107;28;103414;-68
2022/05/06 07:20:01;;;;;;;15.23;10.77;;;;;;;13.64;82.53;99315.09;5005718;28;103205;-68
2022/05/06 07:22:31;;;;;;;10.70;9.60;;;;;;;13.62;85.10;99311.72;5007622;28;102600;-68
2022/05/06 07:24:59;;;;;;;12.90;10.23;;;;;;;13.75;82.77;99317.78;5010035;28;102588;-68
2022/05/06 07:27:26;;;;;;;8.07;7.23;;;;;;;14.13;83.16;99317.53;5011804;28;103988;-68
2022/05/06 07:29:54;;;;;;;9.43;8.52;;;;;;;14.26;81.35;99317.44;4995664;28;104132;-68
2022/05/06 07:32:23;;;;;;;10.80;8.50;;;;;;;14.19;81.42;99316.22;5004317;28;102631;-68
2022/05/06 07:34:51;;;;;;;7.67;6.90;;;;;;;14.61;80.31;99312.91;4987347;28;102988;-68
2022/05/06 07:37:20;;;;;;;8.90;8.02;;;;;;;14.59;80.77;99314.84;5006808;28;103827;-68
2022/05/06 07:39:48;;;;;;;8.38;7.60;;;;;;;14.72;80.00;99317.34;5011145;28;103193;-68
2022/05/06 07:42:16;;;;;;;8.93;8.13;;;;;;;14.54;79.45;99326.81;5011147;28;102587;-68
2022/05/06 07:44:44;;;;;;;8.30;7.60;;;;;;;14.67;79.63;99328.38;5007428;28;103592;-68
2022/05/06 07:47:12;;;;;;;10.90;9.73;;;;;;;13.99;80.29;99324.88;5006351;28;103316;-68
2022/05/06 07:49:40;;;;;;;10.82;9.77;;;;;;;14.14;81.04;99319.25;4995099;28;103188;-69
2022/05/06 07:52:08;;;;;;;11.40;10.30;;;;;;;13.92;81.79;99319.19;4997825;28;102973;-67
2022/05/06 07:54:38;;;;;;;10.27;9.32;;;;;;;14.51;79.97;99318.09;5009469;28;102716;-68
2022/05/06 07:57:08;;;;;;;10.03;8.97;;;;;;;14.26;78.95;99325.44;5006967;28;103238;-68
2022/05/06 07:59:36;;;;;;;10.32;9.32;;;;;;;14.23;79.80;99317.69;5012158;28;103259;-69
2022/05/06 08:04:49;;;;;;;12.37;9.33;;;;;;;13.86;81.33;99320.50;5010741;28;102684;-69
2022/05/06 08:07:18;;;;;;;10.07;9.07;;;;;;;13.95;80.30;99308.31;4989906;28;104268;-69
2022/05/06 08:09:50;;;;;;;10.23;9.23;;;;;;;13.87;80.63;99316.03;4994406;28;104196;-69
2022/05/06 08:12:17;;;;;;;9.13;8.23;;;;;;;14.00;81.76;99319.47;5009569;28;103117;-69
2022/05/06 08:14:46;;;;;;;8.23;7.43;;;;;;;14.79;80.02;99324.72;4992230;28;104311;-69
2022/05/06 08:17:14;;;;;;;10.77;9.43;;;;;;;14.59;78.91;99324.63;5011386;28;103341;-69
2022/05/06 08:19:42;;;;;;;9.60;8.60;;;;;;;14.75;77.74;99325.09;5007400;28;103896;-69
2022/05/06 08:22:11;;;;;;;7.77;7.10;;;;;;;15.24;78.07;99325.50;5010024;28;102990;-69
2022/05/06 08:24:38;;;;;;;8.47;7.67;;;;;;;15.20;77.76;99326.72;5005600;28;103548;-70
2022/05/06 08:27:27;;;;;;;7.80;7.10;;;;;;;15.65;75.04;99322.97;4992448;28;102741;-70
2022/05/06 08:29:55;;;;;;;8.27;7.47;;;;;;;16.02;74.84;99320.72;5013207;28;103250;-69
2022/05/06 08:32:25;;;;;;;10.05;8.82;;;;;;;15.21;75.18;99331.09;4990491;28;102686;-69
2022/05/06 08:34:53;;;;;;;10.38;9.38;;;;;;;14.99;74.59;99337.28;5014296;28;102796;-69
2022/05/06 08:37:22;;;;;;;9.23;8.32;;;;;;;15.21;73.29;99332.91;5012767;28;103932;-70
2022/05/06 08:39:50;;;;;;;10.25;9.25;;;;;;;15.70;71.40;99337.72;5008811;28;103171;-70
2022/05/06 08:42:20;;;;;;;7.72;7.03;;;;;;;16.17;72.00;99334.56;5009265;28;102623;-69
2022/05/06 08:53:07;;;;;;;9.20;7.95;;;;;;;15.11;75.09;99338.13;5001730;28;102630;-67
2022/05/06 08:55:35;;;;;;;9.30;7.30;;;;;;;15.47;74.63;99339.63;5005673;28;104504;-69
2022/05/06 08:58:06;;;;;;;8.98;8.15;;;;;;;15.35;74.97;99341.47;5005105;28;104583;-69
2022/05/06 09:00:35;;;;;;;10.27;8.23;;;;;;;15.27;73.24;99343.88;5004613;27;103186;-69
2022/05/06 09:03:03;;;;;;;11.30;10.13;;;;;;;15.30;72.96;99346.28;5027427;27;103416;-68
2022/05/06 09:05:32;;;;;;;11.45;10.25;;;;;;;15.48;73.36;99328.84;5023831;27;103890;-69
2022/05/06 09:08:02;;;;;;;9.37;8.57;;;;;;;16.02;72.83;99341.22;5025092;27;104258;-69
2022/05/06 09:10:30;;;;;;;8.88;7.85;;;;;;;16.31;72.46;99342.22;5019921;27;103344;-69
2022/05/06 09:13:00;;;;;;;7.00;6.40;;;;;;;16.68;71.78;99346.09;5016326;27;102671;-69
2022/05/06 09:18:22;;;;;;;6.97;6.30;;;;;;;16.50;69.73;99341.50;5023980;27;103286;-69
2022/05/06 09:21:10;;;;;;;6.57;5.95;;;;;;;16.64;69.18;99338.53;5023344;27;103250;-69
2022/05/06 09:23:38;;;;;;;8.00;6.80;;;;;;;16.08;69.91;99340.69;5021593;27;102931;-68
2022/05/06 09:26:18;;;;;;;8.50;7.28;;;;;;;16.00;70.84;99349.31;5007750;27;103663;-68
2022/05/06 09:28:49;;;;;;;10.07;9.17;;;;;;;16.27;70.34;99337.28;5016763;27;103344;-68
2022/05/06 09:31:17;;;;;;;10.25;8.25;;;;;;;16.25;69.60;99338.25;5012402;27;104372;-68
2022/05/06 09:33:46;;;;;;;8.27;6.73;;;;;;;17.19;67.81;99350.50;5021704;27;102693;-68
2022/05/06 09:36:24;;;;;;;8.02;7.25;;;;;;;17.54;67.80;99342.88;5019771;27;103946;-68
2022/05/06 09:39:03;;;;;;;10.35;7.47;;;;;;;17.81;65.19;99339.50;5025256;27;103316;-68
2022/05/06 09:41:32;;;;;;;7.80;6.82;;;;;;;17.52;65.18;99336.78;5019790;27;104120;-68
2022/05/06 09:44:01;;;;;;;8.35;6.80;;;;;;;17.38;66.14;99351.38;5031367;27;102596;-68
2022/05/06 09:46:28;;;;;;;11.20;7.77;;;;;;;17.57;65.35;99339.09;5031720;27;103905;-68
2022/05/06 09:49:00;;;;;;;7.50;6.80;;;;;;;17.56;66.04;99338.22;5028722;27;104540;-68
2022/05/06 09:51:29;;;;;;;7.75;6.95;;;;;;;18.74;62.56;99327.09;5025004;27;104341;-68
2022/05/06 09:53:57;;;;;;;7.40;6.70;;;;;;;19.11;62.43;99327.06;5030794;27;102584;-69
2022/05/06 09:56:27;;;;;;;9.60;7.20;;;;;;;19.43;62.32;99329.25;5028860;27;102787;-69
2022/05/06 09:58:57;;;;;;;8.33;6.80;;;;;;;19.46;59.47;99318.25;5028881;27;104509;-69
2022/05/06 10:01:24;;;;;;;7.25;6.55;;;;;;;17.94;61.58;99327.53;5026880;27;103196;-69
2022/05/06 10:03:53;;;;;;;9.80;6.80;;;;;;;18.13;62.09;99325.84;5031505;27;104004;-69
2022/05/06 10:06:26;;;;;;;7.70;6.47;;;;;;;18.12;62.70;99324.97;5025229;27;103630;-69
2022/05/06 10:09:01;;;;;;;6.90;5.82;;;;;;;18.66;61.72;99318.13;5032403;27;103854;-69
2022/05/06 10:11:30;;;;;;;6.47;5.80;;;;;;;18.59;59.82;99317.84;5040254;27;104420;-69
2022/05/06 10:14:01;;;;;;;7.00;6.13;;;;;;;17.87;62.27;99315.75;5030612;27;102907;-70
2022/05/06 10:16:35;;;;;;;7.35;6.60;;;;;;;17.59;61.30;99321.94;5034576;27;103786;-69
2022/05/06 10:19:04;;;;;;;7.20;6.03;;;;;;;18.14;59.17;99312.31;5017208;27;104342;-69
2022/05/06 10:21:49;;;;;;;7.57;6.03;;;;;;;18.71;60.26;99321.19;5029703;27;103318;-69
2022/05/06 10:24:18;;;;;;;6.70;5.80;;;;;;;18.56;58.29;99318.13;5043989;27;102922;-69
2022/05/06 10:26:47;;;;;;;6.25;5.55;;;;;;;18.48;58.86;99312.66;5023973;27;103972;-70
2022/05/06 10:32:54;;;;;;;7.67;5.80;;;;;;;19.07;56.25;99315.78;5021915;27;102934;-72
2022/05/06 10:35:43;;;;;;;5.75;5.25;;;;;;;20.27;53.53;99302.91;5031883;27;102739;-71
2022/05/06 10:38:21;;;;;;;6.97;6.00;;;;;;;20.02;54.28;99305.34;5032241;27;103572;-71
2022/05/06 10:41:02;;;;;;;6.33;5.73;;;;;;;18.49;55.04;99319.72;5025492;27;103540;-73
2022/05/06 10:43:50;;;;;;;6.55;5.05;;;;;;;18.81;55.09;99311.25;5019448;27;103626;-73
2022/05/06 10:46:34;;;;;;;6.32;5.32;;;;;;;19.02;55.66;99302.03;5029497;27;102684;-70
2022/05/06 10:49:47;;;;;;;5.97;5.32;;;;;;;19.18;54.89;99295.13;5022044;27;104082;-71
2022/05/06 10:52:44;;;;;;;8.77;5.57;;;;;;;18.56;55.56;99296.72;5027715;27;104093;-72
2022/05/06 10:55:16;;;;;;;5.95;5.40;;;;;;;19.66;54.04;99293.84;5030810;27;103010;-72
2022/05/06 10:57:52;;;;;;;5.85;4.65;;;;;;;20.08;53.01;99290.47;5020864;27;102667;-72
2022/05/06 11:00:21;;;;;;;5.72;4.80;;;;;;;20.07;53.33;99288.81;5026556;27;102677;-71
2022/05/06 11:02:50;;;;;;;5.65;5.07;;;;;;;19.62;55.34;99297.00;5030289;27;104043;-71
2022/05/06 11:05:20;;;;;;;5.30;4.78;;;;;;;19.89;54.03;99291.53;5033027;27;103468;-70
2022/05/06 11:07:53;;;;;;;7.22;5.22;;;;;;;19.49;53.74;99285.78;5025098;27;102651;-70
2022/05/06 11:10:27;;;;;;;5.85;5.20;;;;;;;19.01;55.15;99300.31;5017375;27;102635;-70
2022/05/06 11:13:08;;;;;;;5.33;4.63;;;;;;;19.48;52.66;99287.63;5025679;27;103231;-70
2022/05/06 11:15:39;;;;;;;6.13;4.80;;;;;;;19.51;54.34;99289.16;5027858;27;103434;-71
2022/05/06 11:18:08;;;;;;;6.38;5.22;;;;;;;18.95;55.54;99298.25;5013527;27;102872;-72
2022/05/06 11:20:37;;;;;;;6.15;4.90;;;;;;;19.68;52.22;99285.63;5016807;27;103765;-71
2022/05/06 11:23:06;;;;;;;7.60;5.13;;;;;;;19.95;53.23;99295.41;5019551;27;103362;-72
2022/05/06 11:25:37;;;;;;;5.43;4.93;;;;;;;20.71;52.67;99297.28;5021673;27;103214;-71
2022/05/06 11:28:12;;;;;;;6.50;5.33;;;;;;;20.25;51.33;99292.31;5026830;27;102891;-71
2022/05/06 11:30:44;;;;;;;5.47;4.87;;;;;;;20.39;52.03;99291.72;5027109;27;104043;-72
2022/05/06 11:33:20;;;;;;;8.35;6.03;;;;;;;19.35;52.00;99289.81;5024731;27;104300;-74
2022/05/06 11:35:50;;;;;;;5.35;4.85;;;;;;;19.47;54.17;99298.50;5023643;27;103868;-75
2022/05/06 11:38:30;;;;;;;3.97;3.67;;;;;;;20.42;53.10;99291.41;5025277;27;102790;-73
2022/05/06 11:41:08;;;;;;;5.90;5.30;;;;;;;19.64;51.39;99279.75;5031729;27;103048;-73
2022/05/06 11:43:37;;;;;;;6.78;4.68;;;;;;;20.44;51.71;99276.00;5026768;27;103812;-73
2022/05/06 11:48:53;;;;;;;5.82;4.90;;;;;;;20.03;52.01;99280.22;5027466;27;102523;-73
2022/05/06 11:51:25;;;;;;;7.63;5.30;;;;;;;18.96;52.42;99283.88;5027037;27;102813;-73
2022/05/06 11:53:55;;;;;;;6.07;5.00;;;;;;;19.60;52.08;99289.09;5029019;27;103218;-71
2022/05/06 11:56:27;;;;;;;6.97;4.83;;;;;;;19.82;51.81;99287.75;5032590;27;103198;-71
2022/05/06 11:58:57;;;;;;;7.82;4.97;;;;;;;19.56;52.32;99278.84;5030585;27;102637;-71
2022/05/06 12:01:27;;;;;;;5.75;4.38;;;;;;;20.53;51.47;99285.78;5030784;27;103618;-71
2022/05/06 12:03:58;;;;;;;7.00;4.93;;;;;;;19.49;51.76;99280.44;5038333;27;103751;-71
2022/05/06 12:06:37;;;;;;;6.40;4.70;;;;;;;19.63;52.69;99282.56;5030248;27;103232;-71
2022/05/06 12:09:09;;;;;;;10.35;4.75;;;;;;;19.71;53.69;99285.31;5035749;27;102588;-71
2022/05/06 12:11:38;;;;;;;5.70;4.57;;;;;;;20.08;52.25;99285.13;5035481;27;103051;-71
2022/05/06 12:14:07;;;;;;;5.05;4.57;;;;;;;19.91;52.28;99281.47;5032472;27;103571;-70
2022/05/06 12:16:35;;;;;;;5.00;4.55;;;;;;;20.02;52.19;99283.91;5029355;27;103180;-71